Time;durP1;ratioP1;P1;durP2;ratioP2;P2;SDS_P1;SDS_P2;PMS_P1;PMS_P2;Temp;Humidity;BMP_temperature;BMP_pressure;BME280_temperature;BME280_humidity;BME280_pressure;Samples;Min_cycle;Max_cycle;Signal;HPM_P1;HPM_P2
2023/08/01 00:01:35;;;;;;;;;;;;;;;21.27;80.33;99995.59;107943;1256;74029;-73
2023/08/01 00:04:02;;;;;;;;;;;;;;;21.24;80.56;99998.67;107965;1257;72544;-72
2023/08/01 00:06:29;;;;;;;;;;;;;;;21.19;80.72;99996.04;107905;1254;62209;-73
2023/08/01 00:08:57;;;;;;;;;;;;;;;21.14;80.88;99993.58;108001;1254;62354;-73
2023/08/01 00:11:23;;;;;;;;;;;;;;;21.12;81.18;99996.73;107997;1257;75398;-73
2023/08/01 00:13:50;;;;;;;;;;;;;;;21.13;80.98;99993.85;107965;1255;61327;-73
2023/08/01 00:16:17;;;;;;;;;;;;;;;21.16;81.39;99992.91;107906;1256;72548;-73
2023/08/01 00:18:43;;;;;;;;;;;;;;;21.20;81.26;99995.45;107974;1254;60044;-73
2023/08/01 00:21:11;;;;;;;;;;;;;;;21.22;81.36;99996.05;107851;1256;62172;-73
2023/08/01 00:23:38;;;;;;;;;;;;;;;21.24;81.47;99993.34;108001;1257;75295;-72
2023/08/01 00:26:04;;;;;;;;;;;;;;;21.28;81.51;99991.80;108041;1256;72608;-72
2023/08/01 00:28:31;;;;;;;;;;;;;;;21.29;81.45;99981.83;107995;1254;72522;-73
2023/08/01 00:31:10;;;;;;;;;;;;;;;21.31;81.39;99981.19;107820;1256;64770;-73
2023/08/01 00:33:38;;;;;;;;;;;;;;;21.31;81.15;99976.77;107897;1257;61115;-73
2023/08/01 00:36:09;;;;;;;;;;;;;;;21.31;81.03;99977.31;107997;1257;74532;-73
2023/08/01 00:38:36;;;;;;;;;;;;;;;21.32;81.15;99973.69;107928;1258;72634;-73
2023/08/01 00:41:03;;;;;;;;;;;;;;;21.28;80.93;99978.87;108026;1256;74643;-72
2023/08/01 00:43:29;;;;;;;;;;;;;;;21.25;80.67;99982.80;107850;1260;61235;-72
2023/08/01 00:45:58;;;;;;;;;;;;;;;21.24;80.79;99979.13;107918;1257;61214;-72
2023/08/01 00:48:25;;;;;;;;;;;;;;;21.23;80.67;99975.38;107910;1254;73596;-72
2023/08/01 00:50:52;;;;;;;;;;;;;;;21.21;80.58;99977.25;107920;1257;72825;-72
2023/08/01 00:53:19;;;;;;;;;;;;;;;21.20;80.47;99975.36;107725;1257;72774;-72
2023/08/01 00:55:46;;;;;;;;;;;;;;;21.17;80.47;99977.76;107899;1254;61982;-72
2023/08/01 00:58:13;;;;;;;;;;;;;;;21.14;80.40;99977.36;107774;1257;61083;-72
2023/08/01 01:00:39;;;;;;;;;;;;;;;21.12;80.41;99971.81;107856;1257;74697;-72
2023/08/01 01:03:06;;;;;;;;;;;;;;;21.12;80.63;99975.38;107813;1255;61274;-72
2023/08/01 01:05:35;;;;;;;;;;;;;;;21.10;80.75;99973.58;107948;1257;61325;-72
2023/08/01 01:08:02;;;;;;;;;;;;;;;21.10;80.86;99975.38;107751;1257;62114;-72
2023/08/01 01:10:30;;;;;;;;;;;;;;;21.10;80.76;99974.38;107732;1254;61339;-72
2023/08/01 01:12:57;;;;;;;;;;;;;;;21.12;80.77;99966.88;107872;1257;74747;-72
2023/08/01 01:15:24;;;;;;;;;;;;;;;21.12;80.60;99964.16;107942;1254;74083;-72
2023/08/01 01:17:50;;;;;;;;;;;;;;;21.12;80.60;99962.31;107809;1258;61109;-72
2023/08/01 01:20:24;;;;;;;;;;;;;;;21.12;80.61;99964.24;107850;1255;61259;-73
2023/08/01 01:22:54;;;;;;;;;;;;;;;21.12;80.66;99960.66;108047;1255;61100;-72
2023/08/01 01:25:21;;;;;;;;;;;;;;;21.11;80.44;99958.56;107812;1257;74476;-72
2023/08/01 01:27:49;;;;;;;;;;;;;;;21.12;80.54;99957.56;108023;1257;73012;-72
2023/08/01 01:30:15;;;;;;;;;;;;;;;21.11;80.38;99959.11;107727;1256;71210;-72
2023/08/01 01:32:42;;;;;;;;;;;;;;;21.11;80.37;99964.54;107719;1257;63043;-73
2023/08/01 01:35:09;;;;;;;;;;;;;;;21.11;80.21;99963.06;108023;1257;61219;-72
2023/08/01 01:37:36;;;;;;;;;;;;;;;21.11;80.40;99962.51;107956;1258;77389;-72
2023/08/01 01:40:02;;;;;;;;;;;;;;;21.11;80.25;99963.29;107860;1256;72812;-73
2023/08/01 01:42:29;;;;;;;;;;;;;;;21.09;80.24;99964.70;107980;1257;72589;-72
2023/08/01 01:44:56;;;;;;;;;;;;;;;21.07;80.11;99960.55;107807;1254;62027;-71
2023/08/01 01:47:22;;;;;;;;;;;;;;;21.05;79.94;99964.75;108032;1254;61248;-73
2023/08/01 01:49:49;;;;;;;;;;;;;;;21.04;80.16;99963.16;108031;1257;74484;-73
2023/08/01 01:52:16;;;;;;;;;;;;;;;21.02;79.89;99964.02;108072;1254;73033;-73
2023/08/01 01:54:43;;;;;;;;;;;;;;;20.98;79.88;99967.17;108009;1254;72726;-73
2023/08/01 01:57:10;;;;;;;;;;;;;;;20.94;79.69;99970.77;108072;1255;61992;-73
2023/08/01 01:59:37;;;;;;;;;;;;;;;20.92;79.90;99969.61;107809;1255;61135;-73
2023/08/01 02:02:04;;;;;;;;;;;;;;;20.91;79.82;99966.25;108001;1258;74445;-73
2023/08/01 02:04:31;;;;;;;;;;;;;;;20.88;79.66;99962.81;107957;1257;72620;-73
2023/08/01 02:06:57;;;;;;;;;;;;;;;20.82;79.53;99964.35;107975;1256;73583;-72
2023/08/01 02:09:26;;;;;;;;;;;;;;;20.79;79.71;99964.96;107834;1254;63208;-71
2023/08/01 02:11:54;;;;;;;;;;;;;;;20.75;79.44;99971.02;107979;1254;61270;-71
2023/08/01 02:14:20;;;;;;;;;;;;;;;20.66;79.66;99969.35;107967;1254;74733;-72
2023/08/01 02:16:47;;;;;;;;;;;;;;;20.62;79.67;99970.36;107938;1257;72851;-72
2023/08/01 02:19:14;;;;;;;;;;;;;;;20.57;79.76;99966.50;107896;1258;73347;-71
2023/08/01 02:21:40;;;;;;;;;;;;;;;20.53;79.89;99970.02;107827;1254;61266;-72
2023/08/01 02:24:07;;;;;;;;;;;;;;;20.52;79.95;99971.13;108004;1260;61224;-72
2023/08/01 02:26:34;;;;;;;;;;;;;;;20.51;79.92;99972.98;107924;1256;73176;-71
2023/08/01 02:29:01;;;;;;;;;;;;;;;20.52;80.09;99971.38;107947;1254;72519;-72
2023/08/01 02:31:29;;;;;;;;;;;;;;;20.53;80.36;99969.06;107955;1257;72791;-72
2023/08/01 02:33:56;;;;;;;;;;;;;;;20.53;80.34;99974.68;107811;1255;61930;-72
2023/08/01 02:36:23;;;;;;;;;;;;;;;20.48;80.26;99973.70;107895;1259;61256;-72
2023/08/01 02:38:50;;;;;;;;;;;;;;;20.41;80.31;99972.85;107820;1254;74435;-71
2023/08/01 02:41:17;;;;;;;;;;;;;;;20.39;80.32;99972.64;107977;1255;73837;-72
2023/08/01 02:43:43;;;;;;;;;;;;;;;20.38;80.27;99971.04;107998;1257;72488;-72
2023/08/01 02:46:10;;;;;;;;;;;;;;;20.37;80.33;99975.07;107944;1256;61849;-71
2023/08/01 02:48:37;;;;;;;;;;;;;;;20.39;80.36;99980.20;107987;1256;61244;-72
2023/08/01 02:51:03;;;;;;;;;;;;;;;20.39;80.33;99982.40;107919;1257;61136;-72
2023/08/01 02:53:30;;;;;;;;;;;;;;;20.41;80.13;99983.23;108008;1257;71762;-72
2023/08/01 02:55:57;;;;;;;;;;;;;;;20.38;80.18;99978.66;107763;1262;72622;-72
2023/08/01 02:58:24;;;;;;;;;;;;;;;20.37;80.11;99983.71;107837;1257;61812;-72
2023/08/01 03:00:50;;;;;;;;;;;;;;;20.37;80.01;99985.14;107976;1254;60478;-72
2023/08/01 03:03:17;;;;;;;;;;;;;;;20.41;80.29;99989.80;107934;1259;74761;-72
2023/08/01 03:05:44;;;;;;;;;;;;;;;20.43;80.45;99990.80;107946;1257;72675;-72
2023/08/01 03:08:11;;;;;;;;;;;;;;;20.46;80.70;99989.06;107896;1254;72815;-72
2023/08/01 03:10:38;;;;;;;;;;;;;;;20.48;80.66;99984.46;107926;1254;61215;-72
2023/08/01 03:13:04;;;;;;;;;;;;;;;20.50;80.77;99980.57;107937;1254;61675;-72
2023/08/01 03:15:31;;;;;;;;;;;;;;;20.52;80.91;99980.13;107954;1254;74502;-72
2023/08/01 03:17:58;;;;;;;;;;;;;;;20.53;80.78;99983.91;107996;1254;73700;-71
2023/08/01 03:20:25;;;;;;;;;;;;;;;20.56;80.55;99985.84;107637;1256;72594;-72
2023/08/01 03:22:51;;;;;;;;;;;;;;;20.58;80.61;99985.06;107926;1259;61986;-72
2023/08/01 03:25:18;;;;;;;;;;;;;;;20.56;80.52;99984.70;107879;1262;61460;-72
2023/08/01 03:27:46;;;;;;;;;;;;;;;20.49;80.52;99985.11;107868;1254;73645;-73
2023/08/01 03:30:13;;;;;;;;;;;;;;;20.43;80.53;99980.02;107965;1256;73355;-72
2023/08/01 03:32:41;;;;;;;;;;;;;;;20.37;80.52;99986.45;107882;1259;73039;-72
2023/08/01 03:35:08;;;;;;;;;;;;;;;20.35;80.42;99983.41;107999;1255;61945;-72
2023/08/01 03:37:35;;;;;;;;;;;;;;;20.35;80.54;99987.75;107983;1257;61110;-73
2023/08/01 03:40:02;;;;;;;;;;;;;;;20.38;80.68;99990.56;107941;1254;73308;-72
2023/08/01 03:42:29;;;;;;;;;;;;;;;20.35;80.67;99990.33;108032;1254;72699;-72
2023/08/01 03:44:56;;;;;;;;;;;;;;;20.29;80.66;99991.14;107814;1254;71580;-73
2023/08/01 03:47:23;;;;;;;;;;;;;;;20.24;80.70;99991.48;107975;1254;61628;-72
2023/08/01 03:49:50;;;;;;;;;;;;;;;20.24;81.13;99996.14;107786;1257;61108;-72
2023/08/01 03:52:16;;;;;;;;;;;;;;;20.29;81.29;99997.30;107872;1257;74445;-73
2023/08/01 03:54:43;;;;;;;;;;;;;;;20.36;81.51;99997.02;107864;1257;61240;-72
2023/08/01 03:57:10;;;;;;;;;;;;;;;20.38;81.92;99993.14;107989;1255;72489;-73
2023/08/01 03:59:37;;;;;;;;;;;;;;;20.35;82.67;99994.04;107757;1254;61153;-72
2023/08/01 04:02:04;;;;;;;;;;;;;;;20.43;82.90;99992.45;108002;1259;61131;-72
2023/08/01 04:04:31;;;;;;;;;;;;;;;20.66;82.54;99993.83;107943;1259;74705;-72
2023/08/01 04:06:58;;;;;;;;;;;;;;;20.78;82.46;99989.34;107827;1254;72007;-72
2023/08/01 04:09:25;;;;;;;;;;;;;;;20.94;82.55;99985.20;108047;1257;72860;-72
2023/08/01 04:11:51;;;;;;;;;;;;;;;21.08;82.32;99982.23;107899;1255;61247;-72
2023/08/01 04:14:18;;;;;;;;;;;;;;;21.22;82.36;99982.41;107825;1254;61138;-74
2023/08/01 04:16:45;;;;;;;;;;;;;;;21.35;82.33;99979.68;107979;1254;72447;-73
2023/08/01 04:19:12;;;;;;;;;;;;;;;21.46;82.49;99978.63;108025;1254;72984;-73
2023/08/01 04:21:39;;;;;;;;;;;;;;;21.56;82.14;99984.52;107892;1257;72541;-73
2023/08/01 04:24:06;;;;;;;;;;;;;;;21.62;81.93;99989.10;107953;1258;61881;-73
2023/08/01 04:26:33;;;;;;;;;;;;;;;21.67;81.74;99986.01;107957;1256;61128;-73
2023/08/01 04:29:00;;;;;;;;;;;;;;;21.76;81.32;99985.46;107906;1257;75366;-71
2023/08/01 04:31:27;;;;;;;;;;;;;;;21.84;81.05;99985.73;107849;1257;72622;-71
2023/08/01 04:33:54;;;;;;;;;;;;;;;21.84;80.58;99986.05;107919;1258;72687;-72
2023/08/01 04:36:21;;;;;;;;;;;;;;;21.90;80.48;99988.54;107879;1254;62246;-72
2023/08/01 04:38:48;;;;;;;;;;;;;;;21.95;80.50;99986.44;108013;1257;61199;-72
2023/08/01 04:41:15;;;;;;;;;;;;;;;22.01;80.13;99986.07;107793;1257;75139;-72
2023/08/01 04:43:42;;;;;;;;;;;;;;;22.06;80.03;99989.60;107959;1254;72719;-72
2023/08/01 04:46:10;;;;;;;;;;;;;;;22.10;79.94;99989.64;107963;1254;72487;-72
2023/08/01 04:48:41;;;;;;;;;;;;;;;22.11;79.64;99994.05;107884;1257;61233;-72
2023/08/01 04:51:07;;;;;;;;;;;;;;;22.15;79.40;99993.77;107908;1254;61113;-72
2023/08/01 04:53:34;;;;;;;;;;;;;;;22.16;79.19;99991.23;107941;1255;59976;-72
2023/08/01 04:56:01;;;;;;;;;;;;;;;22.18;78.98;99990.82;107876;1259;72672;-73
2023/08/01 04:58:27;;;;;;;;;;;;;;;22.24;78.92;99992.84;107871;1254;73014;-72
2023/08/01 05:00:55;;;;;;;;;;;;;;;22.28;78.61;99993.41;107861;1255;63262;-73
2023/08/01 05:03:21;;;;;;;;;;;;;;;22.28;78.08;99996.83;108045;1254;61115;-73
2023/08/01 05:05:48;;;;;;;;;;;;;;;22.01;78.42;100000.27;107922;1254;73691;-73
2023/08/01 05:08:15;;;;;;;;;;;;;;;22.10;77.93;99991.88;107916;1254;72709;-73
2023/08/01 05:10:42;;;;;;;;;;;;;;;21.91;78.03;99997.13;107940;1254;72690;-73
2023/08/01 05:13:08;;;;;;;;;;;;;;;21.88;78.45;99998.14;107904;1256;61485;-73
2023/08/01 05:15:35;;;;;;;;;;;;;;;21.94;78.69;99997.91;107907;1256;59844;-73
2023/08/01 05:18:02;;;;;;;;;;;;;;;22.03;78.35;99999.94;107987;1254;74542;-73
2023/08/01 05:20:30;;;;;;;;;;;;;;;22.09;78.41;100003.61;107989;1255;72594;-72
2023/08/01 05:22:57;;;;;;;;;;;;;;;22.12;78.71;100004.23;107999;1258;72481;-73
2023/08/01 05:25:24;;;;;;;;;;;;;;;22.22;78.48;99999.72;108031;1254;61882;-73
2023/08/01 05:27:51;;;;;;;;;;;;;;;22.29;77.95;99996.61;107811;1254;61121;-71
2023/08/01 05:30:17;;;;;;;;;;;;;;;22.36;77.85;99996.26;108025;1260;75104;-73
2023/08/01 05:32:45;;;;;;;;;;;;;;;22.45;77.52;99997.33;107919;1258;73493;-71
2023/08/01 05:35:13;;;;;;;;;;;;;;;22.50;77.44;100001.89;107979;1259;72654;-72
2023/08/01 05:37:40;;;;;;;;;;;;;;;22.60;77.45;100005.19;107987;1259;61755;-73
2023/08/01 05:40:07;;;;;;;;;;;;;;;22.66;76.46;100003.60;108013;1256;60570;-73
2023/08/01 05:42:34;;;;;;;;;;;;;;;22.60;75.61;100001.14;107875;1257;72464;-73
2023/08/01 05:45:00;;;;;;;;;;;;;;;22.55;75.19;100004.83;108014;1254;72668;-73
2023/08/01 05:47:27;;;;;;;;;;;;;;;22.52;75.22;100004.20;108008;1254;72681;-73
2023/08/01 05:49:54;;;;;;;;;;;;;;;22.50;75.02;100009.52;108001;1254;61929;-73
2023/08/01 05:52:21;;;;;;;;;;;;;;;22.38;74.56;100007.36;107928;1254;61083;-73
2023/08/01 05:54:48;;;;;;;;;;;;;;;22.26;74.82;100005.94;108025;1260;73555;-72
2023/08/01 05:57:14;;;;;;;;;;;;;;;22.26;75.30;100009.90;108026;1254;71444;-73
2023/08/01 05:59:41;;;;;;;;;;;;;;;22.31;75.46;100007.08;108023;1254;71736;-73
2023/08/01 06:02:08;;;;;;;;;;;;;;;22.40;75.75;100007.55;107922;1259;61909;-73
2023/08/01 06:04:34;;;;;;;;;;;;;;;22.52;75.56;100006.55;107981;1257;61124;-73
2023/08/01 06:07:02;;;;;;;;;;;;;;;22.57;75.37;100005.88;107795;1260;74577;-73
2023/08/01 06:09:28;;;;;;;;;;;;;;;22.86;75.01;100005.34;108106;1254;72702;-73
2023/08/01 06:11:55;;;;;;;;;;;;;;;23.18;74.45;100003.91;107931;1254;71244;-73
2023/08/01 06:14:22;;;;;;;;;;;;;;;23.30;73.68;100005.02;107918;1254;61939;-73
2023/08/01 06:16:50;;;;;;;;;;;;;;;23.52;73.24;99996.55;107875;1254;60183;-73
2023/08/01 06:19:17;;;;;;;;;;;;;;;23.75;72.44;99995.16;107942;1257;74576;-73
2023/08/01 06:21:44;;;;;;;;;;;;;;;23.83;71.73;99997.30;108010;1259;72540;-73
2023/08/01 06:24:11;;;;;;;;;;;;;;;23.74;70.92;99993.13;108032;1257;73300;-73
2023/08/01 06:26:37;;;;;;;;;;;;;;;23.69;70.19;99995.20;107968;1257;61877;-73
2023/08/01 06:29:05;;;;;;;;;;;;;;;23.67;69.89;99994.22;107809;1257;61161;-74
2023/08/01 06:31:32;;;;;;;;;;;;;;;23.71;69.39;99992.14;108020;1259;74301;-73
2023/08/01 06:33:59;;;;;;;;;;;;;;;23.76;69.30;99989.52;108027;1254;74059;-73
2023/08/01 06:36:26;;;;;;;;;;;;;;;23.81;69.00;99991.48;107853;1254;72399;-72
2023/08/01 06:38:53;;;;;;;;;;;;;;;23.82;68.70;99991.64;107963;1254;61773;-74
2023/08/01 06:41:20;;;;;;;;;;;;;;;23.84;68.72;99998.63;108016;1254;61136;-73
2023/08/01 06:43:47;;;;;;;;;;;;;;;23.94;68.67;99995.48;107872;1254;75265;-73
2023/08/01 06:46:14;;;;;;;;;;;;;;;24.12;68.83;99995.04;107891;1257;73110;-73
2023/08/01 06:48:40;;;;;;;;;;;;;;;24.29;67.82;99991.91;107859;1254;72334;-74
2023/08/01 06:51:07;;;;;;;;;;;;;;;24.38;67.28;99988.78;108007;1255;61253;-74
2023/08/01 06:53:34;;;;;;;;;;;;;;;24.54;66.77;99982.90;107965;1259;61234;-74
2023/08/01 06:56:01;;;;;;;;;;;;;;;24.79;66.09;99978.61;108046;1254;74714;-73
2023/08/01 06:58:28;;;;;;;;;;;;;;;24.86;64.72;99978.49;107992;1254;74047;-72
2023/08/01 07:00:55;;;;;;;;;;;;;;;24.88;64.38;99976.81;107711;1260;74701;-73
2023/08/01 07:03:21;;;;;;;;;;;;;;;24.90;63.99;99972.00;107855;1258;62311;-73
2023/08/01 07:05:48;;;;;;;;;;;;;;;24.95;63.46;99973.86;107878;1256;61141;-73
2023/08/01 07:08:16;;;;;;;;;;;;;;;24.96;63.52;99974.45;107861;1254;73696;-72
2023/08/01 07:10:43;;;;;;;;;;;;;;;24.99;62.91;99973.06;107923;1256;72807;-73
2023/08/01 07:13:10;;;;;;;;;;;;;;;24.97;62.55;99972.65;107800;1254;73698;-73
2023/08/01 07:15:37;;;;;;;;;;;;;;;25.00;62.54;99968.79;107839;1257;61345;-73
2023/08/01 07:18:04;;;;;;;;;;;;;;;25.10;62.17;99968.07;107854;1256;61081;-73
2023/08/01 07:20:31;;;;;;;;;;;;;;;25.15;61.44;99966.75;107904;1254;74660;-73
2023/08/01 07:22:58;;;;;;;;;;;;;;;25.33;60.87;99967.23;107948;1254;72620;-73
2023/08/01 07:25:25;;;;;;;;;;;;;;;25.38;59.74;99968.23;107868;1256;72568;-73
2023/08/01 07:27:52;;;;;;;;;;;;;;;25.31;59.23;99969.79;107842;1254;61208;-73
2023/08/01 07:30:18;;;;;;;;;;;;;;;25.32;59.30;99973.38;107858;1254;61551;-73
2023/08/01 07:32:47;;;;;;;;;;;;;;;25.32;58.76;99975.73;107888;1257;74549;-72
2023/08/01 07:35:14;;;;;;;;;;;;;;;25.22;58.84;99974.05;107725;1254;75676;-72
2023/08/01 07:37:41;;;;;;;;;;;;;;;25.17;59.29;99971.32;107949;1255;72756;-76
2023/08/01 07:40:09;;;;;;;;;;;;;;;25.24;59.23;99976.17;108014;1254;61926;-77
2023/08/01 07:42:36;;;;;;;;;;;;;;;25.34;59.31;99976.70;107845;1259;62443;-76
2023/08/01 07:45:03;;;;;;;;;;;;;;;25.50;59.59;99975.73;107902;1254;75494;-76
2023/08/01 07:47:30;;;;;;;;;;;;;;;25.69;59.18;99973.15;107959;1254;72710;-77
2023/08/01 07:49:57;;;;;;;;;;;;;;;25.71;58.53;99969.34;107819;1254;72532;-76
2023/08/01 07:52:23;;;;;;;;;;;;;;;25.72;57.94;99968.09;107866;1254;61697;-77
2023/08/01 07:54:52;;;;;;;;;;;;;;;25.72;57.88;99966.92;107909;1254;61196;-76
2023/08/01 07:57:19;;;;;;;;;;;;;;;25.82;58.13;99968.06;107788;1255;74659;-77
2023/08/01 07:59:45;;;;;;;;;;;;;;;25.90;57.17;99966.83;107861;1254;72695;-75
2023/08/01 08:02:12;;;;;;;;;;;;;;;25.88;56.93;99966.27;107972;1254;72690;-76
2023/08/01 08:04:39;;;;;;;;;;;;;;;25.89;56.91;99968.78;107725;1260;61127;-76
2023/08/01 08:07:06;;;;;;;;;;;;;;;26.04;57.51;99971.43;107912;1254;62267;-76
2023/08/01 08:09:33;;;;;;;;;;;;;;;26.23;57.07;99968.10;107787;1254;74257;-76
2023/08/01 08:12:00;;;;;;;;;;;;;;;26.34;55.33;99966.31;107903;1254;61260;-77
2023/08/01 08:14:27;;;;;;;;;;;;;;;26.41;56.05;99965.99;108008;1254;72491;-76
2023/08/01 08:16:54;;;;;;;;;;;;;;;26.56;56.55;99966.13;107975;1255;61668;-76
2023/08/01 08:19:23;;;;;;;;;;;;;;;26.73;56.03;99966.02;107885;1254;61336;-76
2023/08/01 08:21:50;;;;;;;;;;;;;;;26.82;55.54;99968.83;107918;1254;74695;-76
2023/08/01 08:24:17;;;;;;;;;;;;;;;26.94;55.64;99969.77;107946;1257;64012;-76
2023/08/01 08:27:02;;;;;;;;;;;;;;;;;;;;;
2023/08/01 08:29:31;;;;;;;;;;;;;;;27.23;55.39;99970.74;107937;1254;61208;-77
2023/08/01 08:32:01;;;;;;;;;;;;;;;27.40;55.11;99968.32;108017;1254;61330;-77
2023/08/01 08:34:28;;;;;;;;;;;;;;;27.51;54.16;99967.11;107835;1257;65901;-77
2023/08/01 08:36:55;;;;;;;;;;;;;;;27.56;52.57;99964.06;108000;1254;74016;-75
2023/08/01 08:39:21;;;;;;;;;;;;;;;27.49;52.59;99961.29;107909;1254;64033;-74
2023/08/01 08:41:50;;;;;;;;;;;;;;;27.48;52.58;99965.05;107982;1254;61192;-73
2023/08/01 08:44:19;;;;;;;;;;;;;;;27.44;52.52;99962.45;107977;1254;59576;-74
2023/08/01 08:46:51;;;;;;;;;;;;;;;27.49;52.64;99961.30;107820;1254;74524;-74
2023/08/01 08:49:20;;;;;;;;;;;;;;;27.52;51.81;99957.00;107848;1254;62883;-73
2023/08/01 08:51:47;;;;;;;;;;;;;;;27.59;52.02;99954.67;107806;1254;63146;-74
2023/08/01 08:54:14;;;;;;;;;;;;;;;27.74;51.94;99954.11;107931;1254;61071;-75
2023/08/01 08:56:42;;;;;;;;;;;;;;;27.89;52.24;99951.80;107724;1256;61140;-77
2023/08/01 08:59:12;;;;;;;;;;;;;;;28.00;52.67;99949.30;107960;1257;65826;-74
2023/08/01 09:01:41;;;;;;;;;;;;;;;28.10;52.02;99947.91;107807;1254;64288;-75
2023/08/01 09:04:08;;;;;;;;;;;;;;;28.20;51.46;99947.68;107996;1259;63873;-75
2023/08/01 09:06:37;;;;;;;;;;;;;;;28.34;50.98;99948.55;108009;1254;61092;-75
2023/08/01 09:09:10;;;;;;;;;;;;;;;28.44;50.19;99947.09;107890;1254;61122;-74
2023/08/01 09:11:43;;;;;;;;;;;;;;;28.55;50.08;99943.55;107888;1254;65889;-73
2023/08/01 09:14:10;;;;;;;;;;;;;;;28.59;48.99;99942.68;107873;1254;62635;-73
2023/08/01 09:16:36;;;;;;;;;;;;;;;28.65;48.55;99938.98;107884;1259;64060;-74
2023/08/01 09:19:05;;;;;;;;;;;;;;;28.66;48.44;99937.18;107860;1254;61493;-73
2023/08/01 09:21:35;;;;;;;;;;;;;;;28.59;48.17;99932.32;107734;1256;61198;-74
2023/08/01 09:24:12;;;;;;;;;;;;;;;28.51;48.02;99926.28;107818;1254;64922;-74
2023/08/01 09:26:38;;;;;;;;;;;;;;;28.64;48.14;99918.57;107861;1254;63245;-74
2023/08/01 09:29:06;;;;;;;;;;;;;;;28.77;47.06;99918.32;107819;1254;65022;-73
2023/08/01 09:31:34;;;;;;;;;;;;;;;28.65;46.11;99921.02;107717;1254;61115;-74
2023/08/01 09:34:05;;;;;;;;;;;;;;;28.35;47.45;99916.46;108038;1255;61152;-73
2023/08/01 09:36:32;;;;;;;;;;;;;;;28.36;48.28;99914.50;107919;1257;65907;-73
2023/08/01 09:39:03;;;;;;;;;;;;;;;28.60;47.90;99912.46;107781;1260;64213;-74
2023/08/01 09:41:30;;;;;;;;;;;;;;;28.79;47.50;99910.15;107751;1257;63369;-74
2023/08/01 09:43:57;;;;;;;;;;;;;;;28.86;46.96;99907.39;107864;1254;61281;-75
2023/08/01 09:46:24;;;;;;;;;;;;;;;28.92;46.50;99910.83;107725;1254;60061;-74
2023/08/01 09:48:50;;;;;;;;;;;;;;;28.99;45.87;99909.63;107749;1254;65955;-73
2023/08/01 09:51:18;;;;;;;;;;;;;;;29.09;45.09;99909.38;107757;1255;63884;-73
2023/08/01 09:53:52;;;;;;;;;;;;;;;29.23;44.70;99904.84;107828;1254;63963;-72
2023/08/01 09:56:26;;;;;;;;;;;;;;;29.34;44.54;99900.41;107796;1254;61362;-73
2023/08/01 09:58:54;;;;;;;;;;;;;;;29.40;43.79;99898.55;107852;1256;61659;-73
2023/08/01 10:01:21;;;;;;;;;;;;;;;29.46;44.09;99902.22;107758;1254;66074;-73
2023/08/01 10:03:49;;;;;;;;;;;;;;;29.56;44.41;99903.44;107842;1259;63998;-75
2023/08/01 10:06:22;;;;;;;;;;;;;;;29.66;43.86;99902.38;107947;1258;65125;-75
2023/08/01 10:08:49;;;;;;;;;;;;;;;29.74;43.41;99895.95;107845;1254;61016;-74
2023/08/01 10:11:21;;;;;;;;;;;;;;;29.76;43.10;99893.67;107858;1254;61656;-75
2023/08/01 10:13:48;;;;;;;;;;;;;;;29.74;43.02;99894.92;107828;1257;64549;-75
2023/08/01 10:16:15;;;;;;;;;;;;;;;29.71;43.37;99894.86;107699;1254;63925;-75
2023/08/01 10:18:42;;;;;;;;;;;;;;;29.73;43.87;99891.09;107971;1254;65248;-74
2023/08/01 10:21:09;;;;;;;;;;;;;;;29.74;44.43;99888.08;108069;1254;61121;-74
2023/08/01 10:23:36;;;;;;;;;;;;;;;29.80;44.42;99886.32;107941;1254;61327;-74
2023/08/01 10:26:04;;;;;;;;;;;;;;;29.86;44.07;99881.79;107818;1254;67111;-74
2023/08/01 10:28:40;;;;;;;;;;;;;;;29.90;44.13;99879.48;107977;1254;62930;-75
2023/08/01 10:31:14;;;;;;;;;;;;;;;29.94;44.34;99880.48;107772;1260;64164;-75
2023/08/01 10:33:43;;;;;;;;;;;;;;;29.96;43.47;99876.91;107675;1254;61080;-76
2023/08/01 10:36:12;;;;;;;;;;;;;;;29.91;44.42;99878.52;107970;1254;61145;-74
2023/08/01 10:39:00;;;;;;;;;;;;;;;30.00;44.33;99878.00;107860;1254;65874;-75
2023/08/01 10:41:28;;;;;;;;;;;;;;;30.04;43.99;99870.80;107948;1256;64398;-75
2023/08/01 10:44:05;;;;;;;;;;;;;;;30.07;43.30;99870.85;107811;1257;64166;-75
2023/08/01 10:46:50;;;;;;;;;;;;;;;30.02;43.35;99868.20;107834;1256;61099;-75
2023/08/01 10:49:17;;;;;;;;;;;;;;;29.97;43.70;99864.39;107781;1254;61129;-74
2023/08/01 10:51:44;;;;;;;;;;;;;;;29.99;43.82;99862.64;108040;1254;67022;-75
2023/08/01 10:54:24;;;;;;;;;;;;;;;30.01;43.75;99860.98;107861;1259;64119;-75
2023/08/01 10:56:51;;;;;;;;;;;;;;;29.94;43.57;99862.46;107760;1254;64087;-74
2023/08/01 10:59:18;;;;;;;;;;;;;;;29.87;43.43;99861.65;107843;1254;61278;-75
2023/08/01 11:01:48;;;;;;;;;;;;;;;29.90;43.01;99860.98;107844;1254;61007;-75
2023/08/01 11:04:16;;;;;;;;;;;;;;;29.92;42.39;99859.87;107887;1256;65958;-75
2023/08/01 11:06:46;;;;;;;;;;;;;;;29.90;43.44;99858.31;107906;1257;64807;-74
2023/08/01 11:09:17;;;;;;;;;;;;;;;29.99;43.50;99856.44;107882;1254;64881;-74
2023/08/01 11:11:44;;;;;;;;;;;;;;;30.07;42.21;99856.22;107931;1254;61256;-74
2023/08/01 11:14:11;;;;;;;;;;;;;;;30.04;42.89;99854.90;107969;1254;61230;-74
2023/08/01 11:16:38;;;;;;;;;;;;;;;30.07;42.72;99855.27;107938;1254;66063;-74
2023/08/01 11:19:06;;;;;;;;;;;;;;;30.08;42.57;99849.90;108022;1258;62727;-74
2023/08/01 11:21:36;;;;;;;;;;;;;;;30.12;43.15;99849.80;107857;1254;63974;-74
2023/08/01 11:24:06;;;;;;;;;;;;;;;30.25;43.63;99850.02;107787;1258;59381;-74
2023/08/01 11:26:33;;;;;;;;;;;;;;;30.40;42.75;99846.66;107921;1254;61301;-73
2023/08/01 11:29:05;;;;;;;;;;;;;;;30.44;41.69;99842.66;107898;1254;66125;-74
2023/08/01 11:31:32;;;;;;;;;;;;;;;30.39;41.53;99836.95;107882;1254;62907;-73
2023/08/01 11:33:59;;;;;;;;;;;;;;;30.27;42.26;99834.96;107667;1254;259326;-72
2023/08/01 11:36:29;;;;;;;;;;;;;;;30.46;42.59;99833.51;107834;1254;61527;-73
2023/08/01 11:38:59;;;;;;;;;;;;;;;30.59;42.20;99832.67;107651;1254;62871;-75
2023/08/01 11:41:26;;;;;;;;;;;;;;;30.68;41.20;99831.23;107595;1254;65886;-75
2023/08/01 11:43:54;;;;;;;;;;;;;;;30.64;40.50;99829.52;107810;1254;64765;-73
2023/08/01 11:46:22;;;;;;;;;;;;;;;30.59;41.08;99825.02;107799;1254;65070;-72
2023/08/01 11:48:51;;;;;;;;;;;;;;;30.66;41.27;99825.81;107727;1254;61257;-73
2023/08/01 11:51:18;;;;;;;;;;;;;;;30.72;40.60;99822.05;107914;1254;61069;-73
2023/08/01 11:53:45;;;;;;;;;;;;;;;30.78;41.16;99821.20;107778;1254;66061;-74
2023/08/01 11:56:24;;;;;;;;;;;;;;;30.86;40.78;99821.98;107816;1255;65360;-73
2023/08/01 11:58:50;;;;;;;;;;;;;;;30.94;40.33;99814.39;107825;1257;62500;-73
2023/08/01 12:01:17;;;;;;;;;;;;;;;30.84;40.65;99812.79;107794;1254;61992;-74
2023/08/01 12:03:51;;;;;;;;;;;;;;;30.74;41.57;99814.77;107630;1254;61064;-73
2023/08/01 12:06:19;;;;;;;;;;;;;;;30.77;42.10;99814.84;107669;1254;66103;-73
2023/08/01 12:08:46;;;;;;;;;;;;;;;30.86;41.69;99811.98;107944;1254;65091;-73
2023/08/01 12:11:20;;;;;;;;;;;;;;;30.99;41.52;99809.52;107908;1257;64948;-74
2023/08/01 12:13:47;;;;;;;;;;;;;;;31.12;41.63;99808.41;107839;1257;61259;-74
2023/08/01 12:16:19;;;;;;;;;;;;;;;31.21;41.40;99804.58;107829;1254;61211;-74
2023/08/01 12:18:48;;;;;;;;;;;;;;;31.18;41.13;99802.34;107828;1259;66134;-73
2023/08/01 12:21:26;;;;;;;;;;;;;;;31.18;41.43;99803.27;107763;1254;65800;-73
2023/08/01 12:23:53;;;;;;;;;;;;;;;31.21;41.10;99800.48;107831;1258;63940;-74
2023/08/01 12:26:20;;;;;;;;;;;;;;;31.25;40.88;99802.63;107742;1256;59381;-74
2023/08/01 12:28:47;;;;;;;;;;;;;;;31.33;40.59;99795.35;107717;1254;61089;-73
2023/08/01 12:31:20;;;;;;;;;;;;;;;31.40;40.64;99789.19;107846;1254;64836;-74
2023/08/01 12:33:47;;;;;;;;;;;;;;;31.46;40.21;99782.48;107639;1254;65078;-74
2023/08/01 12:36:14;;;;;;;;;;;;;;;31.51;40.15;99779.86;107871;1254;65801;-73
2023/08/01 12:38:41;;;;;;;;;;;;;;;31.54;40.23;99777.14;107818;1257;61232;-74
2023/08/01 12:41:08;;;;;;;;;;;;;;;31.55;40.47;99773.48;107866;1255;61253;-74